createdAt,value
2016-05-25T00:00:18.344Z,0
2016-05-25T00:01:18.409Z,0
2016-05-25T00:02:18.286Z,0
2016-05-25T00:03:18.274Z,0
2016-05-25T00:04:18.246Z,0
2016-05-25T00:05:18.077Z,0
2016-05-25T00:06:18.048Z,0
2016-05-25T00:07:18.191Z,0
2016-05-25T00:08:18.163Z,0
2016-05-25T00:09:18.135Z,0
2016-05-25T00:10:18.105Z,0
2016-05-25T00:11:18.093Z,0
2016-05-25T00:12:18.063Z,0
2016-05-25T00:13:18.035Z,0
2016-05-25T00:14:18.007Z,0
2016-05-25T00:15:17.993Z,0
2016-05-25T00:16:18.169Z,0
2016-05-25T00:17:17.952Z,0
2016-05-25T00:18:17.924Z,0
2016-05-25T00:19:17.911Z,0
2016-05-25T00:20:17.726Z,0
2016-05-25T00:21:17.854Z,0
2016-05-25T00:22:17.684Z,0
2016-05-25T00:23:17.812Z,0
2016-05-25T00:24:17.784Z,0
2016-05-25T00:25:17.756Z,0
2016-05-25T00:26:17.726Z,0
2016-05-25T00:27:17.714Z,0
2016-05-25T00:28:17.701Z,0
2016-05-25T00:29:17.673Z,0
2016-05-25T00:30:17.644Z,0
2016-05-25T00:31:18.100Z,0
2016-05-25T00:32:17.602Z,0
2016-05-25T00:33:17.417Z,0
2016-05-25T00:34:17.248Z,0
2016-05-25T00:35:17.532Z,0
2016-05-25T00:36:17.503Z,0
2016-05-25T00:37:17.474Z,0
2016-05-25T00:38:17.463Z,0
2016-05-25T00:39:17.434Z,0
2016-05-25T00:40:17.405Z,0
2016-05-25T00:41:17.392Z,0
2016-05-25T00:42:17.363Z,0
2016-05-25T00:43:17.335Z,0
2016-05-25T00:44:17.321Z,0
2016-05-25T00:45:17.293Z,0
2016-05-25T00:46:18.046Z,0
2016-05-25T00:47:17.252Z,0
2016-05-25T00:48:17.255Z,0
2016-05-25T00:49:17.195Z,0
2016-05-25T00:50:17.198Z,0
2016-05-25T00:51:17.153Z,0
2016-05-25T00:52:17.140Z,0
2016-05-25T00:53:17.096Z,0
2016-05-25T00:54:17.083Z,0
2016-05-25T00:55:17.055Z,0
2016-05-25T00:56:17.042Z,0
2016-05-25T00:57:17.013Z,0
2016-05-25T00:58:16.984Z,0
2016-05-25T00:59:16.956Z,0
2016-05-25T01:00:16.943Z,0
2016-05-25T01:01:17.820Z,0
2016-05-25T01:02:16.902Z,0
2016-05-25T01:03:16.717Z,0
2016-05-25T01:04:16.844Z,0
2016-05-25T01:05:16.816Z,0
2016-05-25T01:06:16.802Z,0
2016-05-25T01:07:16.774Z,0
2016-05-25T01:08:16.746Z,0
2016-05-25T01:09:16.577Z,0
2016-05-25T01:10:16.705Z,0
2016-05-25T01:11:16.691Z,0
2016-05-25T01:12:16.663Z,0
2016-05-25T01:13:16.321Z,0
2016-05-25T01:14:16.465Z,0
2016-05-25T01:15:16.593Z,0
2016-05-25T01:16:16.751Z,0
2016-05-25T01:17:16.535Z,0
2016-05-25T01:18:16.366Z,0
2016-05-25T01:19:16.494Z,0
2016-05-25T01:20:16.465Z,0
2016-05-25T01:21:16.468Z,0
2016-05-25T01:22:16.424Z,0
2016-05-25T01:23:16.411Z,0
2016-05-25T01:24:16.367Z,0
2016-05-25T01:25:16.198Z,0
2016-05-25T01:26:16.325Z,0
2016-05-25T01:27:16.313Z,0
2016-05-25T01:28:16.300Z,0
2016-05-25T01:29:16.256Z,0
2016-05-25T01:30:16.242Z,0
2016-05-25T01:31:16.214Z,0
2016-05-25T01:32:16.045Z,0
2016-05-25T01:33:16.000Z,0
2016-05-25T01:34:16.144Z,0
2016-05-25T01:35:15.975Z,0
2016-05-25T01:36:16.118Z,0
2016-05-25T01:37:16.074Z,0
2016-05-25T01:38:16.044Z,0
2016-05-25T01:39:16.032Z,0
2016-05-25T01:40:16.005Z,0
2016-05-25T01:41:15.975Z,0
2016-05-25T01:42:15.947Z,0
2016-05-25T01:43:15.777Z,0
2016-05-25T01:44:15.905Z,0
2016-05-25T01:45:15.877Z,0
2016-05-25T01:46:16.160Z,0
2016-05-25T01:47:15.835Z,0
2016-05-25T01:48:15.807Z,0
2016-05-25T01:49:15.779Z,0
2016-05-25T01:50:15.765Z,0
2016-05-25T01:51:15.736Z,0
2016-05-25T01:52:15.724Z,0
2016-05-25T01:53:15.539Z,0
2016-05-25T01:54:15.667Z,0
2016-05-25T01:55:15.653Z,0
2016-05-25T01:56:15.484Z,0
2016-05-25T01:57:15.628Z,0
2016-05-25T01:58:15.427Z,0
2016-05-25T01:59:15.555Z,0
2016-05-25T02:00:15.526Z,0
2016-05-25T02:01:15.389Z,0
2016-05-25T02:02:15.485Z,0
2016-05-25T02:03:15.456Z,0
2016-05-25T02:04:15.444Z,0
2016-05-25T02:05:15.414Z,0
2016-05-25T02:06:15.089Z,0
2016-05-25T02:07:15.358Z,0
2016-05-25T02:08:15.344Z,0
2016-05-25T02:09:15.316Z,0
2016-05-25T02:10:15.147Z,0
2016-05-25T02:11:15.119Z,0
2016-05-25T02:12:15.262Z,0
2016-05-25T02:13:15.218Z,0
2016-05-25T02:14:15.205Z,0
2016-05-25T02:15:15.176Z,0
2016-05-25T02:16:15.804Z,0
2016-05-25T02:17:15.196Z,0
2016-05-25T02:18:15.106Z,0
2016-05-25T02:19:15.093Z,0
2016-05-25T02:20:15.065Z,0
2016-05-25T02:21:15.035Z,0
2016-05-25T02:22:15.023Z,0
2016-05-25T02:23:14.995Z,0
2016-05-25T02:24:14.966Z,0
2016-05-25T02:25:14.937Z,0
2016-05-25T02:26:14.924Z,0
2016-05-25T02:27:14.895Z,0
2016-05-25T02:28:14.867Z,0
2016-05-25T02:29:14.853Z,0
2016-05-25T02:30:14.825Z,0
2016-05-25T02:31:15.125Z,0
2016-05-25T02:32:14.628Z,0
2016-05-25T02:33:14.756Z,0
2016-05-25T02:34:14.728Z,0
2016-05-25T02:35:14.558Z,0
2016-05-25T02:36:14.701Z,0
2016-05-25T02:37:14.657Z,0
2016-05-25T02:38:14.644Z,0
2016-05-25T02:39:14.615Z,0
2016-05-25T02:40:14.587Z,0
2016-05-25T02:41:14.418Z,0
2016-05-25T02:42:14.546Z,0
2016-05-25T02:43:14.533Z,0
2016-05-25T02:44:14.504Z,0
2016-05-25T02:45:14.475Z,0
2016-05-25T02:46:14.932Z,0
2016-05-25T02:47:14.434Z,4
2016-05-25T02:48:14.437Z,4
2016-05-25T02:49:14.376Z,4
2016-05-25T02:50:14.363Z,0
2016-05-25T02:51:14.196Z,4
2016-05-25T02:52:14.322Z,4
2016-05-25T02:53:14.294Z,4
2016-05-25T02:54:14.265Z,8
2016-05-25T02:55:14.237Z,4
2016-05-25T02:56:14.224Z,4
2016-05-25T02:57:14.195Z,8
2016-05-25T02:58:14.167Z,4
2016-05-25T02:59:14.153Z,12
2016-05-25T03:00:14.125Z,12
2016-05-25T03:01:14.597Z,12
2016-05-25T03:02:14.146Z,12
2016-05-25T03:03:14.086Z,12
2016-05-25T03:04:14.042Z,16
2016-05-25T03:05:14.169Z,16
2016-05-25T03:06:13.986Z,16
2016-05-25T03:07:13.956Z,20
2016-05-25T03:08:13.944Z,20
2016-05-25T03:09:13.914Z,28
2016-05-25T03:10:13.746Z,24
2016-05-25T03:11:13.873Z,28
2016-05-25T03:12:13.845Z,28
2016-05-25T03:13:13.660Z,32
2016-05-25T03:14:13.788Z,36
2016-05-25T03:15:13.634Z,48
2016-05-25T03:16:13.777Z,56
2016-05-25T03:17:14.202Z,68
2016-05-25T03:18:13.705Z,76
2016-05-25T03:19:13.676Z,88
2016-05-25T03:20:13.507Z,96
2016-05-25T03:21:13.651Z,108
2016-05-25T03:22:13.450Z,120
2016-05-25T03:23:13.437Z,128
2016-05-25T03:24:13.565Z,140
2016-05-25T03:25:13.380Z,160
2016-05-25T03:26:13.524Z,184
2016-05-25T03:27:13.338Z,200
2016-05-25T03:28:13.310Z,216
2016-05-25T03:29:13.453Z,232
2016-05-25T03:30:13.425Z,252
2016-05-25T03:31:13.412Z,284
2016-05-25T03:32:13.664Z,324
2016-05-25T03:33:13.214Z,356
2016-05-25T03:34:13.342Z,376
2016-05-25T03:35:13.156Z,388
2016-05-25T03:36:13.300Z,404
2016-05-25T03:37:13.115Z,432
2016-05-25T03:38:13.242Z,456
2016-05-25T03:39:13.230Z,472
2016-05-25T03:40:13.186Z,472
2016-05-25T03:41:13.172Z,468
2016-05-25T03:42:13.144Z,472
2016-05-25T03:43:13.131Z,476
2016-05-25T03:44:13.102Z,472
2016-05-25T03:45:13.074Z,464
2016-05-25T03:46:13.577Z,460
2016-05-25T03:47:13.033Z,468
2016-05-25T03:48:13.005Z,476
2016-05-25T03:49:12.976Z,496
2016-05-25T03:50:12.979Z,520
2016-05-25T03:51:12.934Z,560
2016-05-25T03:52:12.921Z,604
2016-05-25T03:53:12.893Z,632
2016-05-25T03:54:12.879Z,640
2016-05-25T03:55:12.852Z,636
2016-05-25T03:56:12.823Z,628
2016-05-25T03:57:12.638Z,628
2016-05-25T03:58:12.782Z,648
2016-05-25T03:59:12.754Z,680
2016-05-25T04:00:12.584Z,712
2016-05-25T04:01:12.726Z,752
2016-05-25T04:02:12.699Z,812
2016-05-25T04:03:12.654Z,912
2016-05-25T04:04:12.642Z,1032
2016-05-25T04:05:12.613Z,1100
2016-05-25T04:06:12.584Z,1120
2016-05-25T04:07:12.570Z,1108
2016-05-25T04:08:12.543Z,1124
2016-05-25T04:09:12.530Z,1200
2016-05-25T04:10:12.501Z,1336
2016-05-25T04:11:12.472Z,1504
2016-05-25T04:12:12.459Z,1668
2016-05-25T04:13:12.431Z,1820
2016-05-25T04:14:12.247Z,1936
2016-05-25T04:15:12.233Z,2016
2016-05-25T04:16:12.799Z,2080
2016-05-25T04:17:12.051Z,2168
2016-05-25T04:18:12.319Z,2264
2016-05-25T04:19:12.314Z,2380
2016-05-25T04:20:12.153Z,2424
2016-05-25T04:21:12.179Z,2476
2016-05-25T04:22:12.316Z,2564
2016-05-25T04:23:12.311Z,2604
2016-05-25T04:24:12.150Z,2680
2016-05-25T04:25:12.302Z,2728
2016-05-25T04:26:12.282Z,2800
2016-05-25T04:27:12.262Z,2912
2016-05-25T04:28:12.242Z,2992
2016-05-25T04:29:12.076Z,3052
2016-05-25T04:30:12.566Z,3108
2016-05-25T04:31:12.181Z,3156
2016-05-25T04:32:12.796Z,3212
2016-05-25T04:33:12.146Z,3288
2016-05-25T04:34:12.118Z,3388
2016-05-25T04:35:12.106Z,3532
2016-05-25T04:36:12.079Z,3696
2016-05-25T04:37:12.067Z,3828
2016-05-25T04:38:12.041Z,3828
2016-05-25T04:39:12.044Z,3684
2016-05-25T04:40:13.452Z,3464
2016-05-25T04:41:11.971Z,3280
2016-05-25T04:42:11.787Z,3156
2016-05-25T04:43:11.930Z,3108
2016-05-25T04:44:11.902Z,3108
2016-05-25T04:45:14.576Z,3108
2016-05-25T04:46:11.720Z,3132
2016-05-25T04:47:11.848Z,3172
2016-05-25T04:48:11.819Z,3248
2016-05-25T04:49:11.790Z,3376
2016-05-25T04:50:11.762Z,3552
2016-05-25T04:51:11.733Z,3764
2016-05-25T04:52:11.720Z,4032
2016-05-25T04:53:11.691Z,4348
2016-05-25T04:54:11.679Z,4704
2016-05-25T04:55:11.650Z,5044
2016-05-25T04:56:11.636Z,5256
2016-05-25T04:57:11.608Z,5304
2016-05-25T04:58:11.580Z,5280
2016-05-25T04:59:11.567Z,5248
2016-05-25T05:00:11.383Z,5224
2016-05-25T05:01:11.510Z,5224
2016-05-25T05:02:11.357Z,5172
2016-05-25T05:03:11.313Z,4976
2016-05-25T05:04:11.315Z,4784
2016-05-25T05:05:11.427Z,4648
2016-05-25T05:06:11.413Z,4552
2016-05-25T05:07:11.382Z,4464
2016-05-25T05:08:11.354Z,4340
2016-05-25T05:09:11.341Z,4204
2016-05-25T05:10:11.312Z,4144
2016-05-25T05:11:11.284Z,4196
2016-05-25T05:12:11.271Z,4260
2016-05-25T05:13:11.259Z,4276
2016-05-25T05:14:11.229Z,4296
2016-05-25T05:15:11.201Z,4328
2016-05-25T05:16:11.173Z,4384
2016-05-25T05:17:10.863Z,4464
2016-05-25T05:18:11.147Z,4572
2016-05-25T05:19:11.103Z,4632
2016-05-25T05:20:10.933Z,4616
2016-05-25T05:21:11.062Z,4548
2016-05-25T05:22:10.892Z,4452
2016-05-25T05:23:11.020Z,4340
2016-05-25T05:24:10.991Z,4136
2016-05-25T05:25:10.978Z,3880
2016-05-25T05:26:12.090Z,3604
2016-05-25T05:27:10.937Z,3460
2016-05-25T05:28:10.908Z,3488
2016-05-25T05:29:10.895Z,3564
2016-05-25T05:30:10.866Z,3604
2016-05-25T05:31:10.853Z,3604
2016-05-25T05:32:10.825Z,3584
2016-05-25T05:33:10.641Z,3500
2016-05-25T05:34:10.627Z,3380
2016-05-25T05:35:10.755Z,3236
2016-05-25T05:36:10.430Z,3096
2016-05-25T05:37:10.714Z,3036
2016-05-25T05:38:10.685Z,3096
2016-05-25T05:39:10.672Z,3220
2016-05-25T05:40:10.659Z,3328
2016-05-25T05:41:10.615Z,3348
2016-05-25T05:42:10.602Z,3252
2016-05-25T05:43:10.589Z,3096
2016-05-25T05:44:10.560Z,2976
2016-05-25T05:45:10.547Z,2904
2016-05-25T05:46:12.928Z,2892
2016-05-25T05:47:10.350Z,2856
2016-05-25T05:48:10.478Z,2772
2016-05-25T05:49:10.449Z,2688
2016-05-25T05:50:10.436Z,2660
2016-05-25T05:51:10.251Z,2676
2016-05-25T05:52:10.379Z,2720
2016-05-25T05:53:10.350Z,2728
2016-05-25T05:54:10.353Z,2760
2016-05-25T05:55:10.308Z,2880
2016-05-25T05:56:10.296Z,2984
2016-05-25T05:57:10.267Z,3152
2016-05-25T05:58:10.239Z,3360
2016-05-25T05:59:10.226Z,3564
2016-05-25T06:00:10.213Z,3784
2016-05-25T06:01:10.216Z,3980
2016-05-25T06:02:10.046Z,4200
2016-05-25T06:03:10.252Z,4472
2016-05-25T06:04:09.958Z,4836
2016-05-25T06:05:10.101Z,5172
2016-05-25T06:06:10.494Z,5412
2016-05-25T06:07:10.044Z,5800
2016-05-25T06:08:10.031Z,6248
2016-05-25T06:09:09.863Z,6456
2016-05-25T06:10:09.818Z,6848
2016-05-25T06:11:09.836Z,7676
2016-05-25T06:12:09.933Z,8624
2016-05-25T06:13:09.920Z,8980
2016-05-25T06:14:09.891Z,8644
2016-05-25T06:15:09.721Z,7948
2016-05-25T06:16:10.428Z,7388
2016-05-25T06:17:09.852Z,7060
2016-05-25T06:18:09.792Z,7056
2016-05-25T06:19:09.780Z,7112
2016-05-25T06:20:09.767Z,6900
2016-05-25T06:21:09.737Z,6464
2016-05-25T06:22:09.710Z,6016
2016-05-25T06:23:09.556Z,5644
2016-05-25T06:24:09.512Z,5336
2016-05-25T06:25:09.656Z,5180
2016-05-25T06:26:09.626Z,5108
2016-05-25T06:27:09.614Z,5056
2016-05-25T06:28:09.585Z,4928
2016-05-25T06:29:09.916Z,4652
2016-05-25T06:30:09.386Z,4308
2016-05-25T06:31:09.514Z,3820
2016-05-25T06:32:09.580Z,3512
2016-05-25T06:33:09.474Z,3572
2016-05-25T06:34:09.305Z,3428
2016-05-25T06:35:09.276Z,3312
2016-05-25T06:36:09.419Z,3600
2016-05-25T06:37:09.235Z,3764
2016-05-25T06:38:09.409Z,3840
2016-05-25T06:39:09.349Z,3992
2016-05-25T06:40:09.336Z,3964
2016-05-25T06:41:09.307Z,3784
2016-05-25T06:42:09.295Z,3872
2016-05-25T06:43:09.266Z,3960
2016-05-25T06:44:09.238Z,4108
2016-05-25T06:45:09.224Z,4116
2016-05-25T06:46:09.040Z,4404
2016-05-25T06:47:09.026Z,4468
2016-05-25T06:48:09.154Z,4376
2016-05-25T06:49:09.126Z,4332
2016-05-25T06:50:08.956Z,4152
2016-05-25T06:51:09.085Z,4156
2016-05-25T06:52:09.071Z,4528
2016-05-25T06:53:09.042Z,5020
2016-05-25T06:54:08.890Z,5496
2016-05-25T06:55:09.017Z,5812
2016-05-25T06:56:08.973Z,6032
2016-05-25T06:57:08.960Z,6476
2016-05-25T06:58:08.931Z,7016
2016-05-25T06:59:08.903Z,8096
2016-05-25T07:00:08.889Z,9300
2016-05-25T07:01:08.861Z,9508
2016-05-25T07:02:08.708Z,8796
2016-05-25T07:03:08.820Z,8644
2016-05-25T07:04:08.807Z,8988
2016-05-25T07:05:08.778Z,9252
2016-05-25T07:06:08.781Z,9584
2016-05-25T07:07:08.580Z,9916
2016-05-25T07:08:08.739Z,10400
2016-05-25T07:09:08.711Z,11232
2016-05-25T07:10:08.698Z,12496
2016-05-25T07:11:08.654Z,14044
2016-05-25T07:12:08.625Z,15152
2016-05-25T07:13:08.737Z,15984
2016-05-25T07:14:08.584Z,16884
2016-05-25T07:15:08.555Z,18048
2016-05-25T07:16:08.542Z,18464
2016-05-25T07:17:08.388Z,18528
2016-05-25T07:18:08.501Z,18272
2016-05-25T07:19:08.473Z,17632
2016-05-25T07:20:08.459Z,16656
2016-05-25T07:21:08.493Z,17316
2016-05-25T07:22:08.481Z,18784
2016-05-25T07:23:08.359Z,18240
2016-05-25T07:24:08.220Z,16884
2016-05-25T07:25:08.364Z,18176
2016-05-25T07:26:08.334Z,18560
2016-05-25T07:27:08.322Z,18656
2016-05-25T07:28:08.293Z,18400
2016-05-25T07:29:08.124Z,18272
2016-05-25T07:30:08.252Z,18528
2016-05-25T07:31:08.239Z,19424
2016-05-25T07:32:08.226Z,19360
2016-05-25T07:33:08.041Z,19680
2016-05-25T07:34:08.169Z,20992
2016-05-25T07:35:08.000Z,22240
2016-05-25T07:36:08.143Z,23040
2016-05-25T07:37:08.115Z,23904
2016-05-25T07:38:08.258Z,25152
2016-05-25T07:39:08.089Z,26816
2016-05-25T07:40:08.060Z,28864
2016-05-25T07:41:08.047Z,30784
2016-05-25T07:42:07.705Z,32224
2016-05-25T07:43:08.005Z,33056
2016-05-25T07:44:07.977Z,33440
2016-05-25T07:45:08.011Z,33120
2016-05-25T07:46:07.951Z,32320
2016-05-25T07:47:07.923Z,31808
2016-05-25T07:48:07.910Z,32544
2016-05-25T07:49:07.896Z,33600
2016-05-25T07:50:07.885Z,34592
2016-05-25T07:51:07.855Z,34944
2016-05-25T07:52:07.843Z,33632
2016-05-25T07:53:07.829Z,32704
2016-05-25T07:54:07.817Z,31936
2016-05-25T07:55:07.804Z,30688
2016-05-25T07:56:07.791Z,27904
2016-05-25T07:57:07.762Z,23520
2016-05-25T07:58:13.295Z,20480
2016-05-25T07:59:07.581Z,19552
2016-05-25T08:00:07.723Z,17104
2016-05-25T08:01:07.710Z,14940
2016-05-25T08:02:07.697Z,14136
2016-05-25T08:03:07.700Z,13860
2016-05-25T08:04:07.500Z,13988
2016-05-25T08:05:07.628Z,14120
2016-05-25T08:06:07.458Z,14020
2016-05-25T08:07:07.445Z,13668
2016-05-25T08:08:07.433Z,13460
2016-05-25T08:09:07.560Z,13628
2016-05-25T08:10:07.547Z,13832
2016-05-25T08:11:07.534Z,13832
2016-05-25T08:12:07.522Z,13688
2016-05-25T08:13:07.493Z,13708
2016-05-25T08:14:07.479Z,13804
2016-05-25T08:15:07.466Z,13988
2016-05-25T08:16:07.454Z,14596
2016-05-25T08:17:07.144Z,15544
2016-05-25T08:18:07.413Z,16844
2016-05-25T08:19:07.243Z,19776
2016-05-25T08:20:07.387Z,23232
2016-05-25T08:21:07.358Z,24224
2016-05-25T08:22:07.345Z,22592
2016-05-25T08:23:07.160Z,20960
2016-05-25T08:24:07.148Z,20256
2016-05-25T08:25:07.290Z,20416
2016-05-25T08:26:07.262Z,21312
2016-05-25T08:27:07.248Z,22176
2016-05-25T08:28:07.236Z,22688
2016-05-25T08:29:07.457Z,22816
2016-05-25T08:30:07.242Z,23680
2016-05-25T08:31:07.025Z,24768
2016-05-25T08:32:07.153Z,25280
2016-05-25T08:33:07.140Z,26240
2016-05-25T08:34:07.128Z,28576
2016-05-25T08:35:06.942Z,31328
2016-05-25T08:36:07.101Z,32160
2016-05-25T08:37:07.072Z,30144
2016-05-25T08:38:08.779Z,26784
2016-05-25T08:39:06.891Z,24832
2016-05-25T08:40:07.081Z,24448
2016-05-25T08:41:07.005Z,25408
2016-05-25T08:42:07.008Z,26592
2016-05-25T08:43:06.995Z,26784
2016-05-25T08:44:06.951Z,26432
2016-05-25T08:45:06.938Z,26304
2016-05-25T08:46:06.925Z,26656
2016-05-25T08:47:06.912Z,27552
2016-05-25T08:48:06.883Z,29056
2016-05-25T08:49:06.871Z,30592
2016-05-25T08:50:06.857Z,31744
2016-05-25T08:51:06.829Z,32320
2016-05-25T08:52:06.816Z,33024
2016-05-25T08:53:07.147Z,33856
2016-05-25T08:54:06.634Z,34560
2016-05-25T08:55:06.777Z,34592
2016-05-25T08:56:06.749Z,34144
2016-05-25T08:57:06.736Z,32896
2016-05-25T08:58:06.426Z,31168
2016-05-25T08:59:06.710Z,29504
2016-05-25T09:00:06.541Z,27360
2016-05-25T09:01:06.184Z,25056
2016-05-25T09:02:06.390Z,22688
2016-05-25T09:03:06.643Z,21216
2016-05-25T09:04:06.630Z,20512
2016-05-25T09:05:06.616Z,20064
2016-05-25T09:06:06.448Z,19712
2016-05-25T09:07:06.591Z,19040
2016-05-25T09:08:06.562Z,18112
2016-05-25T09:09:06.644Z,17664
2016-05-25T09:10:06.536Z,17568
2016-05-25T09:11:06.508Z,17568
2016-05-25T09:12:06.495Z,17236
2016-05-25T09:13:06.483Z,16856
2016-05-25T09:14:06.313Z,16304
2016-05-25T09:15:06.300Z,15704
2016-05-25T09:16:06.334Z,15136
2016-05-25T09:17:06.603Z,14740
2016-05-25T09:18:06.620Z,14824
2016-05-25T09:19:06.717Z,15028
2016-05-25T09:20:06.813Z,15172
2016-05-25T09:21:06.426Z,15308
2016-05-25T09:22:06.335Z,15480
2016-05-25T09:23:06.432Z,15668
2016-05-25T09:24:06.293Z,15928
2016-05-25T09:25:06.124Z,16304
2016-05-25T09:26:06.251Z,16784
2016-05-25T09:27:06.348Z,17536
2016-05-25T09:28:06.334Z,18304
2016-05-25T09:29:06.212Z,19232
2016-05-25T09:30:06.200Z,20480
2016-05-25T09:31:06.187Z,21664
2016-05-25T09:32:06.565Z,21888
2016-05-25T09:33:06.536Z,22336
2016-05-25T09:34:06.117Z,24192
2016-05-25T09:35:06.089Z,24480
2016-05-25T09:36:06.091Z,23392
2016-05-25T09:37:06.078Z,23168
2016-05-25T09:38:06.064Z,25152
2016-05-25T09:39:06.037Z,26944
2016-05-25T09:40:05.867Z,29184
2016-05-25T09:41:05.994Z,30592
2016-05-25T09:42:05.983Z,30176
2016-05-25T09:43:05.845Z,29824
2016-05-25T09:44:05.956Z,28992
2016-05-25T09:45:05.943Z,28448
2016-05-25T09:46:05.914Z,27968
2016-05-25T09:47:05.917Z,27456
2016-05-25T09:48:06.124Z,27936
2016-05-25T09:49:05.719Z,29344
2016-05-25T09:50:05.691Z,31776
2016-05-25T09:51:05.835Z,33504
2016-05-25T09:52:05.821Z,36128
2016-05-25T09:53:07.996Z,38624
2016-05-25T09:54:05.796Z,42208
2016-05-25T09:55:05.782Z,43552
2016-05-25T09:56:05.754Z,43584
2016-05-25T09:57:05.740Z,45248
2016-05-25T09:58:05.572Z,44864
2016-05-25T09:59:05.715Z,42272
2016-05-25T10:00:05.701Z,40768
2016-05-25T10:01:05.533Z,40544
2016-05-25T10:02:05.676Z,40000
2016-05-25T10:03:05.695Z,39104
2016-05-25T10:04:07.056Z,38400
2016-05-25T10:05:06.903Z,38048
2016-05-25T10:06:06.781Z,38016
2016-05-25T10:07:05.627Z,37504
2016-05-25T10:08:05.442Z,36672
2016-05-25T10:09:05.680Z,35392
2016-05-25T10:10:05.558Z,33984
2016-05-25T10:11:05.544Z,32352
2016-05-25T10:12:05.563Z,30560
2016-05-25T10:13:05.378Z,28672
2016-05-25T10:14:05.427Z,27040
2016-05-25T10:15:05.492Z,25984
2016-05-25T10:16:05.324Z,25312
2016-05-25T10:17:05.858Z,24736
2016-05-25T10:18:05.486Z,24352
2016-05-25T10:19:05.441Z,24160
2016-05-25T10:20:05.287Z,24000
2016-05-25T10:21:05.415Z,23968
2016-05-25T10:22:05.433Z,24032
2016-05-25T10:23:05.389Z,24288
2016-05-25T10:24:05.220Z,24672
2016-05-25T10:25:05.364Z,25024
2016-05-25T10:26:05.210Z,25376
2016-05-25T10:27:05.181Z,26144
2016-05-25T10:28:05.310Z,27328
2016-05-25T10:29:05.312Z,28320
2016-05-25T10:30:05.282Z,28992
2016-05-25T10:31:06.864Z,29792
2016-05-25T10:32:05.273Z,30272
2016-05-25T10:33:05.245Z,30880
2016-05-25T10:34:05.247Z,30848
2016-05-25T10:35:05.078Z,30240
2016-05-25T10:36:06.659Z,30496
2016-05-25T10:37:05.192Z,30496
2016-05-25T10:38:05.195Z,30592
2016-05-25T10:39:05.167Z,30816
2016-05-25T10:40:05.153Z,31008
2016-05-25T10:41:07.891Z,31296
2016-05-25T10:42:05.144Z,31648
2016-05-25T10:43:05.115Z,32224
2016-05-25T10:44:05.102Z,32800
2016-05-25T10:45:04.932Z,33344
2016-05-25T10:46:05.075Z,34016
2016-05-25T10:47:05.313Z,34432
2016-05-25T10:48:05.050Z,34592
2016-05-25T10:49:05.038Z,34592
2016-05-25T10:50:05.024Z,34304
2016-05-25T10:51:05.011Z,34016
2016-05-25T10:52:04.999Z,33728
2016-05-25T10:53:05.142Z,33568
2016-05-25T10:54:05.129Z,33312
2016-05-25T10:55:04.960Z,32992
2016-05-25T10:56:04.947Z,32832
2016-05-25T10:57:04.934Z,33024
2016-05-25T10:58:04.780Z,33632
2016-05-25T10:59:04.907Z,34464
2016-05-25T11:00:04.895Z,35456
2016-05-25T11:01:04.991Z,36352
2016-05-25T11:02:05.103Z,36768
2016-05-25T11:03:04.716Z,37056
2016-05-25T11:04:04.687Z,37376
2016-05-25T11:05:04.831Z,37792
2016-05-25T11:06:04.818Z,39520
2016-05-25T11:07:04.804Z,40288
2016-05-25T11:08:04.792Z,40128
2016-05-25T11:09:04.622Z,48768
2016-05-25T11:10:04.765Z,44096
2016-05-25T11:11:04.815Z,46848
2016-05-25T11:12:04.740Z,54848
2016-05-25T11:13:04.742Z,54336
2016-05-25T11:14:04.729Z,47840
2016-05-25T11:15:04.700Z,46464
2016-05-25T11:16:04.703Z,45376
2016-05-25T11:17:04.534Z,45184
2016-05-25T11:18:04.741Z,46592
2016-05-25T11:19:04.665Z,45824
2016-05-25T11:20:04.667Z,47072
2016-05-25T11:21:04.654Z,50144
2016-05-25T11:22:04.486Z,58080
2016-05-25T11:23:04.785Z,104864
2016-05-25T11:24:04.616Z,50944
2016-05-25T11:25:05.274Z,46336
2016-05-25T11:26:04.591Z,45312
2016-05-25T11:27:04.436Z,49536
2016-05-25T11:28:04.579Z,46272
2016-05-25T11:29:04.566Z,41632
2016-05-25T11:30:04.554Z,37824
2016-05-25T11:31:04.540Z,35424
2016-05-25T11:32:04.824Z,35008
2016-05-25T11:33:05.624Z,35776
2016-05-25T11:34:04.362Z,36544
2016-05-25T11:35:04.505Z,37440
2016-05-25T11:36:04.507Z,38144
2016-05-25T11:37:04.494Z,38272
2016-05-25T11:38:04.498Z,38240
2016-05-25T11:39:04.468Z,38944
2016-05-25T11:40:04.456Z,40864
2016-05-25T11:41:04.756Z,42432
2016-05-25T11:42:04.430Z,49056
2016-05-25T11:43:04.433Z,43936
2016-05-25T11:44:04.653Z,45088
2016-05-25T11:45:04.406Z,45568
2016-05-25T11:46:04.394Z,45696
2016-05-25T11:47:04.397Z,47040
2016-05-25T11:48:05.712Z,47872
2016-05-25T11:49:04.214Z,47072
2016-05-25T11:50:04.358Z,44736
2016-05-25T11:51:04.188Z,40256
2016-05-25T11:52:04.332Z,37216
2016-05-25T11:53:04.350Z,36224
2016-05-25T11:54:04.165Z,35616
2016-05-25T11:55:04.324Z,35264
2016-05-25T11:56:04.139Z,34848
2016-05-25T11:57:04.282Z,34208
2016-05-25T11:58:04.129Z,33664
2016-05-25T11:59:04.272Z,33312
2016-05-25T12:00:04.104Z,32928
2016-05-25T12:01:04.090Z,32832
2016-05-25T12:02:04.234Z,32800
2016-05-25T12:03:04.096Z,32448
2016-05-25T12:04:04.224Z,32992
2016-05-25T12:05:04.054Z,34656
2016-05-25T12:06:04.197Z,35232
2016-05-25T12:07:04.028Z,34496
2016-05-25T12:08:04.312Z,33664
2016-05-25T12:09:04.159Z,32256
2016-05-25T12:10:03.990Z,31456
2016-05-25T12:11:04.148Z,32352
2016-05-25T12:12:03.963Z,32384
2016-05-25T12:13:03.795Z,33696
2016-05-25T12:14:04.125Z,40544
2016-05-25T12:15:04.081Z,118112
2016-05-25T12:16:04.083Z,114080
2016-05-25T12:17:04.086Z,111360
2016-05-25T12:18:03.902Z,85376
2016-05-25T12:19:03.889Z,57440
2016-05-25T12:20:04.126Z,60736
2016-05-25T12:21:04.019Z,52768
2016-05-25T12:22:03.850Z,50208
2016-05-25T12:23:04.009Z,59488
2016-05-25T12:24:03.996Z,57824
2016-05-25T12:25:03.983Z,56544
2016-05-25T12:26:03.969Z,50592
2016-05-25T12:27:03.847Z,48000
2016-05-25T12:28:03.975Z,40672
2016-05-25T12:29:03.807Z,36800
2016-05-25T12:30:03.949Z,34816
2016-05-25T12:31:03.812Z,33824
2016-05-25T12:32:04.314Z,32992
2016-05-25T12:33:04.129Z,31552
2016-05-25T12:34:03.757Z,31264
2016-05-25T12:35:03.916Z,35840
2016-05-25T12:36:03.746Z,36896
2016-05-25T12:37:03.890Z,36160
2016-05-25T12:38:04.502Z,37056
2016-05-25T12:39:03.865Z,38528
2016-05-25T12:40:03.867Z,38816
2016-05-25T12:41:03.698Z,38816
2016-05-25T12:42:03.856Z,37664
2016-05-25T12:43:05.640Z,36544
2016-05-25T12:44:03.847Z,44352
2016-05-25T12:45:03.834Z,40384
2016-05-25T12:46:03.805Z,39744
2016-05-25T12:47:03.839Z,39744
2016-05-25T12:48:03.811Z,39296
2016-05-25T12:49:03.798Z,37536
2016-05-25T12:50:03.785Z,35904
2016-05-25T12:51:03.880Z,32128
2016-05-25T12:52:03.899Z,30016
2016-05-25T12:53:04.214Z,47680
2016-05-25T12:54:03.717Z,65792
2016-05-25T12:55:03.720Z,53760
2016-05-25T12:56:03.707Z,79200
2016-05-25T12:57:03.709Z,43904
2016-05-25T12:58:03.697Z,39232
2016-05-25T12:59:03.683Z,35712
2016-05-25T13:00:03.671Z,31296
2016-05-25T13:01:03.657Z,29536
2016-05-25T13:02:04.005Z,30144
2016-05-25T13:03:03.929Z,33312
2016-05-25T13:04:03.634Z,47904
2016-05-25T13:05:03.466Z,69344
2016-05-25T13:06:03.609Z,61760
2016-05-25T13:07:03.596Z,62816
2016-05-25T13:08:03.582Z,64992
2016-05-25T13:09:03.570Z,34368
2016-05-25T13:10:03.587Z,31456
2016-05-25T13:11:03.560Z,30144
2016-05-25T13:12:03.390Z,29088
2016-05-25T13:13:03.534Z,28448
2016-05-25T13:14:03.521Z,27872
2016-05-25T13:15:03.523Z,29184
2016-05-25T13:16:03.511Z,31456
2016-05-25T13:17:03.670Z,39520
2016-05-25T13:18:08.313Z,43040
2016-05-25T13:19:03.316Z,42816
2016-05-25T13:20:03.365Z,54048
2016-05-25T13:21:03.462Z,64640
2016-05-25T13:22:03.464Z,76640
2016-05-25T13:23:03.436Z,54400
2016-05-25T13:24:03.422Z,50624
2016-05-25T13:25:03.431Z,66112
2016-05-25T13:26:03.442Z,68192